SGAS/ASU METAR and TAF weather

Enter ICAO airport designator
Station Type Date Time Source
SGAS METAR 2017/06/26 00:00 UTC NOAA

SGAS 260000Z 07007KT 360V110 CAVOK 23/15 Q1015


Station Type Date Time Source
SGAS Decoded METAR 2017/06/26 00:00 UTC NOAA

Asuncion / Aeropuerto, Paraguay (SGAS) 25-16S 057-38W 101M
Jun 25, 2017 - 08:00 PM EDT / 2017.06.26 0000 UTC
Wind: from the ENE (070 degrees) at 8 MPH (7 KT) (direction variable):0
Visibility: greater than 7 mile(s):0
Temperature: 73 F (23 C)
Dew Point: 59 F (15 C)
Relative Humidity: 60%
Pressure (altimeter): 29.97 in. Hg (1015 hPa)
ob: SGAS 260000Z 07007KT 360V110 CAVOK 23/15 Q1015
cycle: 0

Station Type Date Time Source
SGAS TAF 2017/06/25 18:32 UTC NOAA

TAF SGAS 251645Z 2518/2618 04015KT CAVOK TX29/2619Z TN20/2610Z
BECMG 2603/2607 09008KT 8000 NSC


Example: see airport list